sensor_id;sensor_type;location;lat;lon;timestamp;temperature;humidity
14409;DHT22;7289;50.706;4.992;2023-06-22T00:00:40;21.20;99.90
14409;DHT22;7289;50.706;4.992;2023-06-22T00:03:11;21.20;99.90
14409;DHT22;7289;50.706;4.992;2023-06-22T00:05:39;21.10;99.90
14409;DHT22;7289;50.706;4.992;2023-06-22T00:08:07;21.10;99.90
14409;DHT22;7289;50.706;4.992;2023-06-22T00:10:36;21.10;99.90
14409;DHT22;7289;50.706;4.992;2023-06-22T00:13:04;21.00;99.90
14409;DHT22;7289;50.706;4.992;2023-06-22T00:15:33;21.00;99.90
14409;DHT22;7289;50.706;4.992;2023-06-22T00:18:02;21.00;99.90
14409;DHT22;7289;50.706;4.992;2023-06-22T00:20:32;20.90;99.90
14409;DHT22;7289;50.706;4.992;2023-06-22T00:23:05;20.90;99.90
14409;DHT22;7289;50.706;4.992;2023-06-22T00:25:35;20.80;99.90
14409;DHT22;7289;50.706;4.992;2023-06-22T00:28:04;20.80;99.90
14409;DHT22;7289;50.706;4.992;2023-06-22T00:30:34;20.80;99.90
14409;DHT22;7289;50.706;4.992;2023-06-22T00:33:03;20.80;99.90
14409;DHT22;7289;50.706;4.992;2023-06-22T00:35:36;20.70;99.90
14409;DHT22;7289;50.706;4.992;2023-06-22T00:38:04;20.80;99.90
14409;DHT22;7289;50.706;4.992;2023-06-22T00:40:33;20.80;99.90
14409;DHT22;7289;50.706;4.992;2023-06-22T00:43:02;20.80;99.90
14409;DHT22;7289;50.706;4.992;2023-06-22T00:45:30;20.80;99.90
14409;DHT22;7289;50.706;4.992;2023-06-22T00:47:59;20.90;99.90
14409;DHT22;7289;50.706;4.992;2023-06-22T00:50:29;20.90;99.90
14409;DHT22;7289;50.706;4.992;2023-06-22T00:53:04;20.90;99.90
14409;DHT22;7289;50.706;4.992;2023-06-22T00:55:36;20.90;99.90
14409;DHT22;7289;50.706;4.992;2023-06-22T00:58:06;20.90;99.90
14409;DHT22;7289;50.706;4.992;2023-06-22T01:00:38;20.90;99.90
14409;DHT22;7289;50.706;4.992;2023-06-22T01:03:06;20.90;99.90
14409;DHT22;7289;50.706;4.992;2023-06-22T01:05:38;20.80;99.90
14409;DHT22;7289;50.706;4.992;2023-06-22T01:08:20;20.80;99.90
14409;DHT22;7289;50.706;4.992;2023-06-22T01:10:53;20.80;99.90
14409;DHT22;7289;50.706;4.992;2023-06-22T01:13:29;20.80;99.90
14409;DHT22;7289;50.706;4.992;2023-06-22T01:16:03;20.80;99.90
14409;DHT22;7289;50.706;4.992;2023-06-22T01:18:35;20.80;99.90
14409;DHT22;7289;50.706;4.992;2023-06-22T01:21:05;20.70;99.90
14409;DHT22;7289;50.706;4.992;2023-06-22T01:23:48;20.70;99.90
14409;DHT22;7289;50.706;4.992;2023-06-22T01:26:22;20.60;99.90
14409;DHT22;7289;50.706;4.992;2023-06-22T01:28:57;20.60;99.90
14409;DHT22;7289;50.706;4.992;2023-06-22T01:31:29;20.50;99.90
14409;DHT22;7289;50.706;4.992;2023-06-22T01:34:00;20.50;99.90
14409;DHT22;7289;50.706;4.992;2023-06-22T01:36:29;20.50;99.90
14409;DHT22;7289;50.706;4.992;2023-06-22T01:38:59;20.40;99.90
14409;DHT22;7289;50.706;4.992;2023-06-22T01:41:29;20.40;99.90
14409;DHT22;7289;50.706;4.992;2023-06-22T01:44:01;20.40;99.90
14409;DHT22;7289;50.706;4.992;2023-06-22T01:46:30;20.30;99.90
14409;DHT22;7289;50.706;4.992;2023-06-22T01:48:59;20.30;99.90
14409;DHT22;7289;50.706;4.992;2023-06-22T01:51:27;20.30;99.90
14409;DHT22;7289;50.706;4.992;2023-06-22T01:53:58;20.30;99.90
14409;DHT22;7289;50.706;4.992;2023-06-22T01:56:27;20.30;99.90
14409;DHT22;7289;50.706;4.992;2023-06-22T01:59:02;20.30;99.90
14409;DHT22;7289;50.706;4.992;2023-06-22T02:01:39;20.30;99.90
14409;DHT22;7289;50.706;4.992;2023-06-22T02:04:14;20.30;99.90
14409;DHT22;7289;50.706;4.992;2023-06-22T02:06:47;20.30;99.90
14409;DHT22;7289;50.706;4.992;2023-06-22T02:09:19;20.30;99.90
14409;DHT22;7289;50.706;4.992;2023-06-22T02:11:51;20.20;99.90
14409;DHT22;7289;50.706;4.992;2023-06-22T02:14:24;20.20;99.90
14409;DHT22;7289;50.706;4.992;2023-06-22T02:16:54;20.20;99.90
14409;DHT22;7289;50.706;4.992;2023-06-22T02:19:26;20.10;99.90
14409;DHT22;7289;50.706;4.992;2023-06-22T02:22:00;20.10;99.90
14409;DHT22;7289;50.706;4.992;2023-06-22T02:24:28;20.10;99.90
14409;DHT22;7289;50.706;4.992;2023-06-22T02:26:59;20.10;99.90
14409;DHT22;7289;50.706;4.992;2023-06-22T02:29:29;20.20;99.90
14409;DHT22;7289;50.706;4.992;2023-06-22T02:31:57;20.20;99.90
14409;DHT22;7289;50.706;4.992;2023-06-22T02:34:26;20.20;99.90
14409;DHT22;7289;50.706;4.992;2023-06-22T02:36:54;20.20;99.90
14409;DHT22;7289;50.706;4.992;2023-06-22T02:39:24;20.10;99.90
14409;DHT22;7289;50.706;4.992;2023-06-22T02:41:54;20.20;99.90
14409;DHT22;7289;50.706;4.992;2023-06-22T02:44:22;20.10;99.90
14409;DHT22;7289;50.706;4.992;2023-06-22T02:46:52;20.10;99.90
14409;DHT22;7289;50.706;4.992;2023-06-22T02:49:21;20.10;99.90
14409;DHT22;7289;50.706;4.992;2023-06-22T02:51:50;20.00;99.90
14409;DHT22;7289;50.706;4.992;2023-06-22T02:54:20;20.00;99.90
14409;DHT22;7289;50.706;4.992;2023-06-22T02:56:51;20.00;99.90
14409;DHT22;7289;50.706;4.992;2023-06-22T02:59:21;20.00;99.90
14409;DHT22;7289;50.706;4.992;2023-06-22T03:01:59;19.90;99.90
14409;DHT22;7289;50.706;4.992;2023-06-22T03:04:30;19.90;99.90
14409;DHT22;7289;50.706;4.992;2023-06-22T03:06:59;19.90;99.90
14409;DHT22;7289;50.706;4.992;2023-06-22T03:09:30;20.00;99.90
14409;DHT22;7289;50.706;4.992;2023-06-22T03:11:59;20.00;99.90
14409;DHT22;7289;50.706;4.992;2023-06-22T03:14:34;20.00;99.90
14409;DHT22;7289;50.706;4.992;2023-06-22T03:17:05;20.10;99.90
14409;DHT22;7289;50.706;4.992;2023-06-22T03:19:36;20.10;99.90
14409;DHT22;7289;50.706;4.992;2023-06-22T03:22:05;20.10;99.90
14409;DHT22;7289;50.706;4.992;2023-06-22T03:24:34;20.20;99.90
14409;DHT22;7289;50.706;4.992;2023-06-22T03:27:05;20.20;99.90
14409;DHT22;7289;50.706;4.992;2023-06-22T03:29:34;20.20;99.90
14409;DHT22;7289;50.706;4.992;2023-06-22T03:32:03;20.20;99.90
14409;DHT22;7289;50.706;4.992;2023-06-22T03:34:33;20.20;99.90
14409;DHT22;7289;50.706;4.992;2023-06-22T03:37:04;20.30;99.90
14409;DHT22;7289;50.706;4.992;2023-06-22T03:39:32;20.30;99.90
14409;DHT22;7289;50.706;4.992;2023-06-22T03:42:01;20.10;99.90
14409;DHT22;7289;50.706;4.992;2023-06-22T03:44:29;20.10;99.90
14409;DHT22;7289;50.706;4.992;2023-06-22T03:46:58;20.10;99.90
14409;DHT22;7289;50.706;4.992;2023-06-22T03:49:26;20.10;99.90
14409;DHT22;7289;50.706;4.992;2023-06-22T03:51:56;20.20;99.90
14409;DHT22;7289;50.706;4.992;2023-06-22T03:54:24;20.20;99.90
14409;DHT22;7289;50.706;4.992;2023-06-22T03:56:52;20.10;99.90
14409;DHT22;7289;50.706;4.992;2023-06-22T03:59:21;20.20;99.90
14409;DHT22;7289;50.706;4.992;2023-06-22T04:01:49;20.20;99.90
14409;DHT22;7289;50.706;4.992;2023-06-22T04:04:17;20.20;99.90
14409;DHT22;7289;50.706;4.992;2023-06-22T04:06:46;20.30;99.90
14409;DHT22;7289;50.706;4.992;2023-06-22T04:09:16;20.30;99.90
14409;DHT22;7289;50.706;4.992;2023-06-22T04:11:44;20.30;99.90
14409;DHT22;7289;50.706;4.992;2023-06-22T04:14:13;20.30;99.90
14409;DHT22;7289;50.706;4.992;2023-06-22T04:16:41;20.30;99.90
14409;DHT22;7289;50.706;4.992;2023-06-22T04:19:09;20.30;99.90
14409;DHT22;7289;50.706;4.992;2023-06-22T04:21:43;20.30;99.90
14409;DHT22;7289;50.706;4.992;2023-06-22T04:24:12;20.30;99.90
14409;DHT22;7289;50.706;4.992;2023-06-22T04:26:42;20.40;99.90
14409;DHT22;7289;50.706;4.992;2023-06-22T04:29:12;20.30;99.90
14409;DHT22;7289;50.706;4.992;2023-06-22T04:31:41;20.30;99.90
14409;DHT22;7289;50.706;4.992;2023-06-22T04:34:10;20.40;99.90
14409;DHT22;7289;50.706;4.992;2023-06-22T04:36:40;20.40;99.90
14409;DHT22;7289;50.706;4.992;2023-06-22T04:39:10;20.40;99.90
14409;DHT22;7289;50.706;4.992;2023-06-22T04:41:39;20.40;99.90
14409;DHT22;7289;50.706;4.992;2023-06-22T04:44:13;20.40;99.90
14409;DHT22;7289;50.706;4.992;2023-06-22T04:46:52;20.40;99.90
14409;DHT22;7289;50.706;4.992;2023-06-22T04:49:25;20.30;99.90
14409;DHT22;7289;50.706;4.992;2023-06-22T04:52:00;20.30;99.90
14409;DHT22;7289;50.706;4.992;2023-06-22T04:54:29;20.40;99.90
14409;DHT22;7289;50.706;4.992;2023-06-22T04:57:00;20.40;99.90
14409;DHT22;7289;50.706;4.992;2023-06-22T04:59:31;20.40;99.90
14409;DHT22;7289;50.706;4.992;2023-06-22T05:02:00;20.50;99.90
14409;DHT22;7289;50.706;4.992;2023-06-22T05:04:29;20.50;99.90
14409;DHT22;7289;50.706;4.992;2023-06-22T05:07:00;20.40;99.90
14409;DHT22;7289;50.706;4.992;2023-06-22T05:09:28;20.50;99.90
14409;DHT22;7289;50.706;4.992;2023-06-22T05:11:57;20.50;99.90
14409;DHT22;7289;50.706;4.992;2023-06-22T05:14:26;20.30;99.90
14409;DHT22;7289;50.706;4.992;2023-06-22T05:16:56;20.40;99.90
14409;DHT22;7289;50.706;4.992;2023-06-22T05:19:26;20.50;99.90
14409;DHT22;7289;50.706;4.992;2023-06-22T05:21:58;20.40;99.90
14409;DHT22;7289;50.706;4.992;2023-06-22T05:24:26;20.30;99.90
14409;DHT22;7289;50.706;4.992;2023-06-22T05:26:55;20.20;99.90
14409;DHT22;7289;50.706;4.992;2023-06-22T05:29:23;20.20;99.90
14409;DHT22;7289;50.706;4.992;2023-06-22T05:31:51;20.20;99.90
14409;DHT22;7289;50.706;4.992;2023-06-22T05:34:21;20.10;99.90
14409;DHT22;7289;50.706;4.992;2023-06-22T05:36:50;20.10;99.90
14409;DHT22;7289;50.706;4.992;2023-06-22T05:39:18;20.20;99.90
14409;DHT22;7289;50.706;4.992;2023-06-22T05:41:46;20.30;99.90
14409;DHT22;7289;50.706;4.992;2023-06-22T05:44:15;20.40;99.90
14409;DHT22;7289;50.706;4.992;2023-06-22T05:46:44;20.50;99.90
14409;DHT22;7289;50.706;4.992;2023-06-22T05:49:13;20.50;99.90
14409;DHT22;7289;50.706;4.992;2023-06-22T05:51:43;20.50;99.90
14409;DHT22;7289;50.706;4.992;2023-06-22T05:54:12;20.60;99.90
14409;DHT22;7289;50.706;4.992;2023-06-22T05:56:42;20.70;99.90
14409;DHT22;7289;50.706;4.992;2023-06-22T05:59:11;20.80;99.90
14409;DHT22;7289;50.706;4.992;2023-06-22T06:01:39;21.00;99.90
14409;DHT22;7289;50.706;4.992;2023-06-22T06:04:07;20.90;99.90
14409;DHT22;7289;50.706;4.992;2023-06-22T06:06:36;20.80;99.90
14409;DHT22;7289;50.706;4.992;2023-06-22T06:09:06;20.80;99.90
14409;DHT22;7289;50.706;4.992;2023-06-22T06:11:34;20.90;99.90
14409;DHT22;7289;50.706;4.992;2023-06-22T06:14:03;21.00;99.90
14409;DHT22;7289;50.706;4.992;2023-06-22T06:16:31;20.90;99.90
14409;DHT22;7289;50.706;4.992;2023-06-22T06:19:00;20.80;99.90
14409;DHT22;7289;50.706;4.992;2023-06-22T06:21:28;20.70;99.90
14409;DHT22;7289;50.706;4.992;2023-06-22T06:23:57;20.70;99.90
14409;DHT22;7289;50.706;4.992;2023-06-22T06:26:27;20.60;99.90
14409;DHT22;7289;50.706;4.992;2023-06-22T06:28:57;20.60;99.90
14409;DHT22;7289;50.706;4.992;2023-06-22T06:31:25;20.60;99.90
14409;DHT22;7289;50.706;4.992;2023-06-22T06:33:55;20.60;99.90
14409;DHT22;7289;50.706;4.992;2023-06-22T06:36:24;20.70;99.90
14409;DHT22;7289;50.706;4.992;2023-06-22T06:38:52;20.80;99.90
14409;DHT22;7289;50.706;4.992;2023-06-22T06:41:20;20.90;99.90
14409;DHT22;7289;50.706;4.992;2023-06-22T06:43:50;21.00;99.90
14409;DHT22;7289;50.706;4.992;2023-06-22T06:46:19;21.20;99.90
14409;DHT22;7289;50.706;4.992;2023-06-22T06:48:47;21.10;99.90
14409;DHT22;7289;50.706;4.992;2023-06-22T06:51:15;21.10;99.90
14409;DHT22;7289;50.706;4.992;2023-06-22T06:53:44;21.10;99.90
14409;DHT22;7289;50.706;4.992;2023-06-22T06:56:12;21.10;99.90
14409;DHT22;7289;50.706;4.992;2023-06-22T06:58:41;21.20;99.90
14409;DHT22;7289;50.706;4.992;2023-06-22T07:01:14;21.20;99.90
14409;DHT22;7289;50.706;4.992;2023-06-22T07:03:42;21.30;99.90
14409;DHT22;7289;50.706;4.992;2023-06-22T07:06:10;21.40;99.90
14409;DHT22;7289;50.706;4.992;2023-06-22T07:08:38;21.40;99.90
14409;DHT22;7289;50.706;4.992;2023-06-22T07:11:07;21.20;99.90
14409;DHT22;7289;50.706;4.992;2023-06-22T07:13:35;21.40;99.90
14409;DHT22;7289;50.706;4.992;2023-06-22T07:16:04;21.50;99.90
14409;DHT22;7289;50.706;4.992;2023-06-22T07:18:34;21.70;99.90
14409;DHT22;7289;50.706;4.992;2023-06-22T07:21:02;21.80;99.90
14409;DHT22;7289;50.706;4.992;2023-06-22T07:23:33;22.00;99.90
14409;DHT22;7289;50.706;4.992;2023-06-22T07:26:01;22.30;99.90
14409;DHT22;7289;50.706;4.992;2023-06-22T07:28:30;22.30;99.90
14409;DHT22;7289;50.706;4.992;2023-06-22T07:31:04;22.40;99.90
14409;DHT22;7289;50.706;4.992;2023-06-22T07:33:33;22.50;99.90
14409;DHT22;7289;50.706;4.992;2023-06-22T07:36:02;22.80;99.90
14409;DHT22;7289;50.706;4.992;2023-06-22T07:38:35;23.00;99.90
14409;DHT22;7289;50.706;4.992;2023-06-22T07:41:03;23.20;99.90
14409;DHT22;7289;50.706;4.992;2023-06-22T07:43:32;23.20;99.90
14409;DHT22;7289;50.706;4.992;2023-06-22T07:46:01;23.20;99.90
14409;DHT22;7289;50.706;4.992;2023-06-22T07:48:30;23.20;99.90
14409;DHT22;7289;50.706;4.992;2023-06-22T07:50:59;23.30;99.90
14409;DHT22;7289;50.706;4.992;2023-06-22T07:53:28;23.50;99.60
14409;DHT22;7289;50.706;4.992;2023-06-22T07:55:56;23.40;99.20
14409;DHT22;7289;50.706;4.992;2023-06-22T07:58:24;23.80;99.60
14409;DHT22;7289;50.706;4.992;2023-06-22T08:00:53;23.70;99.20
14409;DHT22;7289;50.706;4.992;2023-06-22T08:03:21;24.10;99.30
14409;DHT22;7289;50.706;4.992;2023-06-22T08:05:49;24.20;98.90
14409;DHT22;7289;50.706;4.992;2023-06-22T08:08:19;24.20;98.20
14409;DHT22;7289;50.706;4.992;2023-06-22T08:10:47;24.30;98.20
14409;DHT22;7289;50.706;4.992;2023-06-22T08:13:16;24.40;98.50
14409;DHT22;7289;50.706;4.992;2023-06-22T08:15:45;24.40;97.50
14409;DHT22;7289;50.706;4.992;2023-06-22T08:18:16;24.40;98.10
14409;DHT22;7289;50.706;4.992;2023-06-22T08:20:44;24.60;98.00
14409;DHT22;7289;50.706;4.992;2023-06-22T08:23:13;24.60;97.60
14409;DHT22;7289;50.706;4.992;2023-06-22T08:25:42;24.70;97.70
14409;DHT22;7289;50.706;4.992;2023-06-22T08:28:11;24.90;97.10
14409;DHT22;7289;50.706;4.992;2023-06-22T08:30:40;24.80;96.40
14409;DHT22;7289;50.706;4.992;2023-06-22T08:33:08;24.50;96.70
14409;DHT22;7289;50.706;4.992;2023-06-22T08:35:41;24.60;97.00
14409;DHT22;7289;50.706;4.992;2023-06-22T08:38:09;24.40;96.50
14409;DHT22;7289;50.706;4.992;2023-06-22T08:40:42;24.30;97.00
14409;DHT22;7289;50.706;4.992;2023-06-22T08:43:10;24.40;96.70
14409;DHT22;7289;50.706;4.992;2023-06-22T08:45:38;24.40;96.70
14409;DHT22;7289;50.706;4.992;2023-06-22T08:48:08;24.20;96.50
14409;DHT22;7289;50.706;4.992;2023-06-22T08:50:36;24.10;97.40
14409;DHT22;7289;50.706;4.992;2023-06-22T08:53:07;24.10;97.60
14409;DHT22;7289;50.706;4.992;2023-06-22T08:55:36;24.20;97.90
14409;DHT22;7289;50.706;4.992;2023-06-22T08:58:05;24.10;97.20
14409;DHT22;7289;50.706;4.992;2023-06-22T09:00:34;24.10;97.50
14409;DHT22;7289;50.706;4.992;2023-06-22T09:03:02;24.10;97.70
14409;DHT22;7289;50.706;4.992;2023-06-22T09:05:32;23.90;97.60
14409;DHT22;7289;50.706;4.992;2023-06-22T09:08:00;23.90;97.80
14409;DHT22;7289;50.706;4.992;2023-06-22T09:10:29;23.90;98.10
14409;DHT22;7289;50.706;4.992;2023-06-22T09:12:58;24.00;97.80
14409;DHT22;7289;50.706;4.992;2023-06-22T09:15:27;24.00;98.10
14409;DHT22;7289;50.706;4.992;2023-06-22T09:17:57;23.90;97.70
14409;DHT22;7289;50.706;4.992;2023-06-22T09:20:25;23.90;98.00
14409;DHT22;7289;50.706;4.992;2023-06-22T09:22:54;23.80;98.20
14409;DHT22;7289;50.706;4.992;2023-06-22T09:25:23;23.80;98.30
14409;DHT22;7289;50.706;4.992;2023-06-22T09:27:51;23.70;98.20
14409;DHT22;7289;50.706;4.992;2023-06-22T09:30:20;23.80;98.20
14409;DHT22;7289;50.706;4.992;2023-06-22T09:32:49;23.90;98.40
14409;DHT22;7289;50.706;4.992;2023-06-22T09:35:18;23.90;98.50
14409;DHT22;7289;50.706;4.992;2023-06-22T09:37:47;23.90;98.50
14409;DHT22;7289;50.706;4.992;2023-06-22T09:40:15;23.90;98.60
14409;DHT22;7289;50.706;4.992;2023-06-22T09:42:44;23.90;98.90
14409;DHT22;7289;50.706;4.992;2023-06-22T09:45:12;23.90;99.10
14409;DHT22;7289;50.706;4.992;2023-06-22T09:47:41;23.70;99.30
14409;DHT22;7289;50.706;4.992;2023-06-22T09:50:11;23.60;99.90
14409;DHT22;7289;50.706;4.992;2023-06-22T09:52:39;23.50;99.90
14409;DHT22;7289;50.706;4.992;2023-06-22T09:55:15;23.40;99.90
14409;DHT22;7289;50.706;4.992;2023-06-22T09:57:44;23.30;99.90
14409;DHT22;7289;50.706;4.992;2023-06-22T10:00:13;23.30;99.90
14409;DHT22;7289;50.706;4.992;2023-06-22T10:02:42;23.30;99.90
14409;DHT22;7289;50.706;4.992;2023-06-22T10:05:12;23.20;99.90
14409;DHT22;7289;50.706;4.992;2023-06-22T10:07:41;23.10;99.90
14409;DHT22;7289;50.706;4.992;2023-06-22T10:10:12;23.00;99.90
14409;DHT22;7289;50.706;4.992;2023-06-22T10:12:45;22.90;99.90
14409;DHT22;7289;50.706;4.992;2023-06-22T10:15:14;22.70;99.90
14409;DHT22;7289;50.706;4.992;2023-06-22T10:17:43;22.60;99.90
14409;DHT22;7289;50.706;4.992;2023-06-22T10:20:13;22.50;99.90
14409;DHT22;7289;50.706;4.992;2023-06-22T10:22:44;22.40;99.90
14409;DHT22;7289;50.706;4.992;2023-06-22T10:25:13;22.30;99.90
14409;DHT22;7289;50.706;4.992;2023-06-22T10:27:41;22.10;99.90
14409;DHT22;7289;50.706;4.992;2023-06-22T10:30:11;21.80;99.90
14409;DHT22;7289;50.706;4.992;2023-06-22T10:32:41;21.70;99.90
14409;DHT22;7289;50.706;4.992;2023-06-22T10:35:10;21.60;99.90
14409;DHT22;7289;50.706;4.992;2023-06-22T10:37:43;21.30;99.90
14409;DHT22;7289;50.706;4.992;2023-06-22T10:40:13;21.10;99.90
14409;DHT22;7289;50.706;4.992;2023-06-22T10:42:42;20.80;99.90
14409;DHT22;7289;50.706;4.992;2023-06-22T10:45:11;20.70;99.90
14409;DHT22;7289;50.706;4.992;2023-06-22T10:47:39;20.60;99.90
14409;DHT22;7289;50.706;4.992;2023-06-22T10:50:10;20.60;99.90
14409;DHT22;7289;50.706;4.992;2023-06-22T10:52:38;20.60;99.90
14409;DHT22;7289;50.706;4.992;2023-06-22T10:55:09;20.70;99.90
14409;DHT22;7289;50.706;4.992;2023-06-22T10:57:38;20.60;99.90
14409;DHT22;7289;50.706;4.992;2023-06-22T11:00:11;20.80;99.90
14409;DHT22;7289;50.706;4.992;2023-06-22T11:02:39;20.90;99.90
14409;DHT22;7289;50.706;4.992;2023-06-22T11:05:08;21.20;99.90
14409;DHT22;7289;50.706;4.992;2023-06-22T11:07:37;21.10;99.90
14409;DHT22;7289;50.706;4.992;2023-06-22T11:10:09;21.00;99.90
14409;DHT22;7289;50.706;4.992;2023-06-22T11:12:37;20.90;99.90
14409;DHT22;7289;50.706;4.992;2023-06-22T11:15:06;20.80;99.90
14409;DHT22;7289;50.706;4.992;2023-06-22T11:17:35;20.90;99.90
14409;DHT22;7289;50.706;4.992;2023-06-22T11:20:04;21.20;99.90
14409;DHT22;7289;50.706;4.992;2023-06-22T11:22:38;21.20;99.90
14409;DHT22;7289;50.706;4.992;2023-06-22T11:25:08;21.20;99.90
14409;DHT22;7289;50.706;4.992;2023-06-22T11:27:38;21.10;99.90
14409;DHT22;7289;50.706;4.992;2023-06-22T11:30:08;20.90;99.90
14409;DHT22;7289;50.706;4.992;2023-06-22T11:32:36;20.60;99.90
14409;DHT22;7289;50.706;4.992;2023-06-22T11:35:05;20.60;99.90
14409;DHT22;7289;50.706;4.992;2023-06-22T11:37:34;20.50;99.90
14409;DHT22;7289;50.706;4.992;2023-06-22T11:40:03;20.30;99.90
14409;DHT22;7289;50.706;4.992;2023-06-22T11:42:37;20.20;99.90
14409;DHT22;7289;50.706;4.992;2023-06-22T11:45:07;20.10;99.90
14409;DHT22;7289;50.706;4.992;2023-06-22T11:47:36;20.10;99.90
14409;DHT22;7289;50.706;4.992;2023-06-22T11:50:06;20.10;99.90
14409;DHT22;7289;50.706;4.992;2023-06-22T11:52:34;20.10;99.90
14409;DHT22;7289;50.706;4.992;2023-06-22T11:55:04;20.10;99.90
14409;DHT22;7289;50.706;4.992;2023-06-22T11:57:34;20.00;99.90
14409;DHT22;7289;50.706;4.992;2023-06-22T12:00:05;20.00;99.90
14409;DHT22;7289;50.706;4.992;2023-06-22T12:02:43;20.00;99.90
14409;DHT22;7289;50.706;4.992;2023-06-22T12:05:12;19.90;99.90
14409;DHT22;7289;50.706;4.992;2023-06-22T12:07:40;19.80;99.90
14409;DHT22;7289;50.706;4.992;2023-06-22T12:10:09;19.70;99.90
14409;DHT22;7289;50.706;4.992;2023-06-22T12:12:37;19.70;99.90
14409;DHT22;7289;50.706;4.992;2023-06-22T12:15:09;19.60;99.90
14409;DHT22;7289;50.706;4.992;2023-06-22T12:17:37;19.70;99.90
14409;DHT22;7289;50.706;4.992;2023-06-22T12:20:07;19.60;99.90
14409;DHT22;7289;50.706;4.992;2023-06-22T12:22:35;19.50;99.90
14409;DHT22;7289;50.706;4.992;2023-06-22T12:25:05;19.50;99.90
14409;DHT22;7289;50.706;4.992;2023-06-22T12:27:34;19.50;99.90
14409;DHT22;7289;50.706;4.992;2023-06-22T12:30:02;19.50;99.90
14409;DHT22;7289;50.706;4.992;2023-06-22T12:32:32;19.40;99.90
14409;DHT22;7289;50.706;4.992;2023-06-22T12:35:01;19.30;99.90
14409;DHT22;7289;50.706;4.992;2023-06-22T12:37:32;19.40;99.90
14409;DHT22;7289;50.706;4.992;2023-06-22T12:40:08;19.30;99.90
14409;DHT22;7289;50.706;4.992;2023-06-22T12:42:36;19.30;99.90
14409;DHT22;7289;50.706;4.992;2023-06-22T12:45:05;19.20;99.90
14409;DHT22;7289;50.706;4.992;2023-06-22T12:47:35;19.10;99.90
14409;DHT22;7289;50.706;4.992;2023-06-22T12:50:05;19.10;99.90
14409;DHT22;7289;50.706;4.992;2023-06-22T12:52:35;19.00;99.90
14409;DHT22;7289;50.706;4.992;2023-06-22T12:55:06;18.90;99.90
14409;DHT22;7289;50.706;4.992;2023-06-22T12:57:35;18.90;99.90
14409;DHT22;7289;50.706;4.992;2023-06-22T13:00:04;18.80;99.90
14409;DHT22;7289;50.706;4.992;2023-06-22T13:02:36;18.70;99.90
14409;DHT22;7289;50.706;4.992;2023-06-22T13:05:05;18.60;99.90
14409;DHT22;7289;50.706;4.992;2023-06-22T13:07:34;18.60;99.90
14409;DHT22;7289;50.706;4.992;2023-06-22T13:10:03;18.60;99.90
14409;DHT22;7289;50.706;4.992;2023-06-22T13:12:31;18.60;99.90
14409;DHT22;7289;50.706;4.992;2023-06-22T13:15:00;18.50;99.90
14409;DHT22;7289;50.706;4.992;2023-06-22T13:17:30;18.50;99.90
14409;DHT22;7289;50.706;4.992;2023-06-22T13:20:00;18.40;99.90
14409;DHT22;7289;50.706;4.992;2023-06-22T13:22:30;18.30;99.90
14409;DHT22;7289;50.706;4.992;2023-06-22T13:24:59;18.30;99.90
14409;DHT22;7289;50.706;4.992;2023-06-22T13:27:28;18.30;99.90
14409;DHT22;7289;50.706;4.992;2023-06-22T13:29:56;18.30;99.90
14409;DHT22;7289;50.706;4.992;2023-06-22T13:32:25;18.30;99.90
14409;DHT22;7289;50.706;4.992;2023-06-22T13:34:54;18.30;99.90
14409;DHT22;7289;50.706;4.992;2023-06-22T13:37:23;18.30;99.90
14409;DHT22;7289;50.706;4.992;2023-06-22T13:39:52;18.20;99.90
14409;DHT22;7289;50.706;4.992;2023-06-22T13:42:24;18.20;99.90
14409;DHT22;7289;50.706;4.992;2023-06-22T13:44:52;18.30;99.90
14409;DHT22;7289;50.706;4.992;2023-06-22T13:47:21;18.30;99.90
14409;DHT22;7289;50.706;4.992;2023-06-22T13:49:49;18.30;99.90
14409;DHT22;7289;50.706;4.992;2023-06-22T13:52:18;18.30;99.90
14409;DHT22;7289;50.706;4.992;2023-06-22T13:54:47;18.30;99.90
14409;DHT22;7289;50.706;4.992;2023-06-22T13:57:16;18.40;99.90
14409;DHT22;7289;50.706;4.992;2023-06-22T13:59:44;18.40;99.90
14409;DHT22;7289;50.706;4.992;2023-06-22T14:02:13;18.40;99.90
14409;DHT22;7289;50.706;4.992;2023-06-22T14:04:41;18.40;99.90
14409;DHT22;7289;50.706;4.992;2023-06-22T14:07:10;18.50;99.90
14409;DHT22;7289;50.706;4.992;2023-06-22T14:09:40;18.40;99.90
14409;DHT22;7289;50.706;4.992;2023-06-22T14:12:11;18.40;99.90
14409;DHT22;7289;50.706;4.992;2023-06-22T14:14:39;18.40;99.90
14409;DHT22;7289;50.706;4.992;2023-06-22T14:17:08;18.40;99.90
14409;DHT22;7289;50.706;4.992;2023-06-22T14:19:36;18.50;99.90
14409;DHT22;7289;50.706;4.992;2023-06-22T14:22:05;18.50;99.90
14409;DHT22;7289;50.706;4.992;2023-06-22T14:24:33;18.50;99.90
14409;DHT22;7289;50.706;4.992;2023-06-22T14:27:02;18.50;99.90
14409;DHT22;7289;50.706;4.992;2023-06-22T14:29:33;18.50;99.90
14409;DHT22;7289;50.706;4.992;2023-06-22T14:32:01;18.50;99.90
14409;DHT22;7289;50.706;4.992;2023-06-22T14:34:29;18.40;99.90
14409;DHT22;7289;50.706;4.992;2023-06-22T14:36:58;18.50;99.90
14409;DHT22;7289;50.706;4.992;2023-06-22T14:39:26;18.60;99.90
14409;DHT22;7289;50.706;4.992;2023-06-22T14:41:54;18.50;99.90
14409;DHT22;7289;50.706;4.992;2023-06-22T14:44:24;18.60;99.90
14409;DHT22;7289;50.706;4.992;2023-06-22T14:47:08;18.60;99.90
14409;DHT22;7289;50.706;4.992;2023-06-22T14:49:36;18.60;99.90
14409;DHT22;7289;50.706;4.992;2023-06-22T14:52:05;18.50;99.90
14409;DHT22;7289;50.706;4.992;2023-06-22T14:54:34;18.50;99.90
14409;DHT22;7289;50.706;4.992;2023-06-22T14:57:02;18.40;99.90
14409;DHT22;7289;50.706;4.992;2023-06-22T14:59:31;18.40;99.90
14409;DHT22;7289;50.706;4.992;2023-06-22T15:01:59;18.50;99.90
14409;DHT22;7289;50.706;4.992;2023-06-22T15:04:29;18.50;99.90
14409;DHT22;7289;50.706;4.992;2023-06-22T15:07:01;18.50;99.90
14409;DHT22;7289;50.706;4.992;2023-06-22T15:09:30;18.60;99.90
14409;DHT22;7289;50.706;4.992;2023-06-22T15:11:58;18.60;99.90
14409;DHT22;7289;50.706;4.992;2023-06-22T15:14:28;18.60;99.90
14409;DHT22;7289;50.706;4.992;2023-06-22T15:16:57;18.60;99.90
14409;DHT22;7289;50.706;4.992;2023-06-22T15:19:25;18.60;99.90
14409;DHT22;7289;50.706;4.992;2023-06-22T15:21:54;18.60;99.90
14409;DHT22;7289;50.706;4.992;2023-06-22T15:24:23;18.60;99.90
14409;DHT22;7289;50.706;4.992;2023-06-22T15:26:51;18.60;99.90
14409;DHT22;7289;50.706;4.992;2023-06-22T15:29:19;18.60;99.90
14409;DHT22;7289;50.706;4.992;2023-06-22T15:31:47;18.60;99.90
14409;DHT22;7289;50.706;4.992;2023-06-22T15:34:16;18.50;99.90
14409;DHT22;7289;50.706;4.992;2023-06-22T15:36:44;18.50;99.90
14409;DHT22;7289;50.706;4.992;2023-06-22T15:39:14;18.60;99.90
14409;DHT22;7289;50.706;4.992;2023-06-22T15:41:43;18.70;99.90
14409;DHT22;7289;50.706;4.992;2023-06-22T15:44:12;18.70;99.90
14409;DHT22;7289;50.706;4.992;2023-06-22T15:46:41;18.60;99.90
14409;DHT22;7289;50.706;4.992;2023-06-22T15:49:09;18.70;99.90
14409;DHT22;7289;50.706;4.992;2023-06-22T15:51:38;18.60;99.90
14409;DHT22;7289;50.706;4.992;2023-06-22T15:54:06;18.70;99.90
14409;DHT22;7289;50.706;4.992;2023-06-22T15:56:35;18.60;99.90
14409;DHT22;7289;50.706;4.992;2023-06-22T15:59:04;18.60;99.90